sensor_id;sensor_type;location;lat;lon;timestamp;pressure;altitude;pressure_sealevel;temperature;humidity
24762;BME280;12865;51.934;10.330;2023-02-13T00:02:02;101317.31;;;6.50;100.00
24762;BME280;12865;51.934;10.330;2023-02-13T00:04:48;101305.91;;;6.48;100.00
24762;BME280;12865;51.934;10.330;2023-02-13T00:07:33;101309.34;;;6.50;100.00
24762;BME280;12865;51.934;10.330;2023-02-13T00:10:19;101314.03;;;6.44;100.00
24762;BME280;12865;51.934;10.330;2023-02-13T00:13:05;101310.38;;;6.46;100.00
24762;BME280;12865;51.934;10.330;2023-02-13T00:15:57;101316.56;;;6.47;100.00
24762;BME280;12865;51.934;10.330;2023-02-13T00:18:43;101303.56;;;6.41;100.00
24762;BME280;12865;51.934;10.330;2023-02-13T00:21:28;101304.41;;;6.41;100.00
24762;BME280;12865;51.934;10.330;2023-02-13T00:24:14;101301.88;;;6.38;100.00
24762;BME280;12865;51.934;10.330;2023-02-13T00:27:00;101310.69;;;6.39;100.00
24762;BME280;12865;51.934;10.330;2023-02-13T00:29:46;101307.25;;;6.37;100.00
24762;BME280;12865;51.934;10.330;2023-02-13T00:32:31;101308.19;;;6.36;100.00
24762;BME280;12865;51.934;10.330;2023-02-13T00:35:17;101299.63;;;6.29;100.00
24762;BME280;12865;51.934;10.330;2023-02-13T00:38:03;101304.06;;;6.28;100.00
24762;BME280;12865;51.934;10.330;2023-02-13T00:40:48;101297.75;;;6.31;100.00
24762;BME280;12865;51.934;10.330;2023-02-13T00:43:34;101307.53;;;6.30;100.00
24762;BME280;12865;51.934;10.330;2023-02-13T00:46:20;101310.94;;;6.32;100.00
24762;BME280;12865;51.934;10.330;2023-02-13T00:49:06;101302.94;;;6.34;100.00
24762;BME280;12865;51.934;10.330;2023-02-13T00:51:52;101303.19;;;6.28;100.00
24762;BME280;12865;51.934;10.330;2023-02-13T00:54:37;101301.41;;;6.28;100.00
24762;BME280;12865;51.934;10.330;2023-02-13T00:57:23;101297.03;;;6.27;100.00
24762;BME280;12865;51.934;10.330;2023-02-13T01:00:09;101303.06;;;6.31;100.00
24762;BME280;12865;51.934;10.330;2023-02-13T01:02:55;101304.78;;;6.32;100.00
24762;BME280;12865;51.934;10.330;2023-02-13T01:05:41;101304.00;;;6.30;100.00
24762;BME280;12865;51.934;10.330;2023-02-13T01:08:27;101309.06;;;6.36;100.00
24762;BME280;12865;51.934;10.330;2023-02-13T01:11:13;101310.16;;;6.30;100.00
24762;BME280;12865;51.934;10.330;2023-02-13T01:13:59;101301.09;;;6.36;100.00
24762;BME280;12865;51.934;10.330;2023-02-13T01:16:44;101296.91;;;6.30;100.00
24762;BME280;12865;51.934;10.330;2023-02-13T01:19:30;101306.56;;;6.31;100.00
24762;BME280;12865;51.934;10.330;2023-02-13T01:22:16;101295.19;;;6.29;100.00
24762;BME280;12865;51.934;10.330;2023-02-13T01:25:02;101298.63;;;6.31;100.00
24762;BME280;12865;51.934;10.330;2023-02-13T01:27:48;101295.25;;;6.28;100.00
24762;BME280;12865;51.934;10.330;2023-02-13T01:30:34;101296.16;;;6.27;100.00
24762;BME280;12865;51.934;10.330;2023-02-13T01:33:24;101289.91;;;6.29;100.00
24762;BME280;12865;51.934;10.330;2023-02-13T01:36:11;101296.53;;;6.40;100.00
24762;BME280;12865;51.934;10.330;2023-02-13T01:38:58;101288.03;;;6.31;100.00
24762;BME280;12865;51.934;10.330;2023-02-13T01:41:44;101284.44;;;6.32;100.00
24762;BME280;12865;51.934;10.330;2023-02-13T01:44:49;101286.31;;;6.30;100.00
24762;BME280;12865;51.934;10.330;2023-02-13T01:47:41;101271.16;;;6.34;100.00
24762;BME280;12865;51.934;10.330;2023-02-13T01:50:56;101276.50;;;6.32;100.00
24762;BME280;12865;51.934;10.330;2023-02-13T01:53:47;101271.22;;;6.32;100.00
24762;BME280;12865;51.934;10.330;2023-02-13T01:56:44;101276.66;;;6.29;100.00
24762;BME280;12865;51.934;10.330;2023-02-13T01:59:36;101267.09;;;6.25;100.00
24762;BME280;12865;51.934;10.330;2023-02-13T02:02:22;101266.97;;;6.28;100.00
24762;BME280;12865;51.934;10.330;2023-02-13T02:05:09;101263.72;;;6.22;100.00
24762;BME280;12865;51.934;10.330;2023-02-13T02:07:57;101263.66;;;6.23;100.00
24762;BME280;12865;51.934;10.330;2023-02-13T02:10:44;101264.69;;;6.19;100.00
24762;BME280;12865;51.934;10.330;2023-02-13T02:13:30;101265.59;;;6.18;100.00
24762;BME280;12865;51.934;10.330;2023-02-13T02:16:15;101256.75;;;6.19;100.00
24762;BME280;12865;51.934;10.330;2023-02-13T02:19:03;101254.97;;;6.20;100.00
24762;BME280;12865;51.934;10.330;2023-02-13T02:22:09;101254.16;;;6.18;100.00
24762;BME280;12865;51.934;10.330;2023-02-13T02:28:16;101254.09;;;6.19;100.00
24762;BME280;12865;51.934;10.330;2023-02-13T02:40:33;101256.50;;;6.04;100.00
24762;BME280;12865;51.934;10.330;2023-02-13T02:43:39;101252.88;;;6.06;100.00
24762;BME280;12865;51.934;10.330;2023-02-13T02:46:37;101255.63;;;6.03;100.00
24762;BME280;12865;51.934;10.330;2023-02-13T02:49:50;101253.16;;;5.99;100.00
24762;BME280;12865;51.934;10.330;2023-02-13T02:56:00;101245.28;;;5.97;100.00
24762;BME280;12865;51.934;10.330;2023-02-13T03:01:59;101241.75;;;5.97;100.00
24762;BME280;12865;51.934;10.330;2023-02-13T03:05:16;101248.94;;;5.95;100.00
24762;BME280;12865;51.934;10.330;2023-02-13T03:08:22;101244.31;;;6.00;100.00
24762;BME280;12865;51.934;10.330;2023-02-13T03:11:28;101239.97;;;5.97;100.00
24762;BME280;12865;51.934;10.330;2023-02-13T03:14:32;101236.31;;;6.01;100.00
24762;BME280;12865;51.934;10.330;2023-02-13T03:17:18;101243.19;;;6.05;100.00
24762;BME280;12865;51.934;10.330;2023-02-13T03:23:51;101244.81;;;6.09;100.00
24762;BME280;12865;51.934;10.330;2023-02-13T03:27:03;101248.38;;;6.08;100.00
24762;BME280;12865;51.934;10.330;2023-02-13T03:30:02;101250.16;;;6.08;100.00
24762;BME280;12865;51.934;10.330;2023-02-13T03:40:02;101252.19;;;6.01;100.00
24762;BME280;12865;51.934;10.330;2023-02-13T03:45:48;101256.69;;;5.99;100.00
24762;BME280;12865;51.934;10.330;2023-02-13T03:48:42;101256.69;;;5.99;100.00
24762;BME280;12865;51.934;10.330;2023-02-13T03:51:53;101259.31;;;5.99;100.00
24762;BME280;12865;51.934;10.330;2023-02-13T03:54:45;101250.53;;;5.99;100.00
24762;BME280;12865;51.934;10.330;2023-02-13T03:57:54;101249.72;;;5.97;100.00
24762;BME280;12865;51.934;10.330;2023-02-13T04:01:03;101247.16;;;5.95;100.00
24762;BME280;12865;51.934;10.330;2023-02-13T04:03:56;101248.00;;;5.96;100.00
24762;BME280;12865;51.934;10.330;2023-02-13T04:07:04;101241.84;;;5.95;100.00
24762;BME280;12865;51.934;10.330;2023-02-13T04:09:50;101248.84;;;5.96;100.00
24762;BME280;12865;51.934;10.330;2023-02-13T04:12:37;101252.19;;;6.01;100.00
24762;BME280;12865;51.934;10.330;2023-02-13T04:15:40;101249.56;;;6.01;100.00
24762;BME280;12865;51.934;10.330;2023-02-13T04:18:29;101257.50;;;6.01;100.00
24762;BME280;12865;51.934;10.330;2023-02-13T04:21:16;101249.56;;;6.01;100.00
24762;BME280;12865;51.934;10.330;2023-02-13T04:24:02;101253.06;;;6.02;100.00
24762;BME280;12865;51.934;10.330;2023-02-13T04:26:48;101246.91;;;6.01;100.00
24762;BME280;12865;51.934;10.330;2023-02-13T04:29:34;101252.06;;;6.04;100.00
24762;BME280;12865;51.934;10.330;2023-02-13T04:32:20;101249.59;;;6.00;100.00
24762;BME280;12865;51.934;10.330;2023-02-13T04:35:05;101254.03;;;5.99;100.00
24762;BME280;12865;51.934;10.330;2023-02-13T04:37:51;101250.53;;;5.99;100.00
24762;BME280;12865;51.934;10.330;2023-02-13T04:40:37;101248.75;;;5.99;100.00
24762;BME280;12865;51.934;10.330;2023-02-13T04:43:23;101246.19;;;5.96;100.00
24762;BME280;12865;51.934;10.330;2023-02-13T04:46:09;101239.94;;;5.99;100.00
24762;BME280;12865;51.934;10.330;2023-02-13T04:48:55;101240.84;;;5.98;100.00
24762;BME280;12865;51.934;10.330;2023-02-13T04:51:41;101243.56;;;5.96;100.00
24762;BME280;12865;51.934;10.330;2023-02-13T04:54:26;101241.84;;;5.95;100.00
24762;BME280;12865;51.934;10.330;2023-02-13T04:57:12;101241.03;;;5.93;100.00
24762;BME280;12865;51.934;10.330;2023-02-13T04:59:58;101238.50;;;5.90;100.00
24762;BME280;12865;51.934;10.330;2023-02-13T05:02:44;101231.47;;;5.89;100.00
24762;BME280;12865;51.934;10.330;2023-02-13T05:05:29;101236.78;;;5.89;100.00
24762;BME280;12865;51.934;10.330;2023-02-13T05:08:15;101230.66;;;5.88;100.00
24762;BME280;12865;51.934;10.330;2023-02-13T05:11:01;101229.78;;;5.88;100.00
24762;BME280;12865;51.934;10.330;2023-02-13T05:13:47;101234.13;;;5.89;100.00
24762;BME280;12865;51.934;10.330;2023-02-13T05:16:32;101236.78;;;5.89;100.00
24762;BME280;12865;51.934;10.330;2023-02-13T05:19:18;101230.56;;;5.90;100.00
24762;BME280;12865;51.934;10.330;2023-02-13T05:22:04;101222.50;;;5.93;100.00
24762;BME280;12865;51.934;10.330;2023-02-13T05:25:08;101230.41;;;5.95;100.00
24762;BME280;12865;51.934;10.330;2023-02-13T05:27:53;101231.31;;;5.94;100.00
24762;BME280;12865;51.934;10.330;2023-02-13T05:30:39;101234.88;;;5.93;100.00
24762;BME280;12865;51.934;10.330;2023-02-13T05:33:25;101235.81;;;5.91;100.00
24762;BME280;12865;51.934;10.330;2023-02-13T05:36:11;101232.28;;;5.91;100.00
24762;BME280;12865;51.934;10.330;2023-02-13T05:38:56;101239.22;;;5.95;100.00
24762;BME280;12865;51.934;10.330;2023-02-13T05:41:43;101233.09;;;5.93;100.00
24762;BME280;12865;51.934;10.330;2023-02-13T05:44:30;101244.81;;;5.87;100.00
24762;BME280;12865;51.934;10.330;2023-02-13T05:47:16;101247.47;;;5.86;100.00
24762;BME280;12865;51.934;10.330;2023-02-13T05:50:01;101251.03;;;5.85;100.00
24762;BME280;12865;51.934;10.330;2023-02-13T05:52:47;101253.00;;;5.80;100.00
24762;BME280;12865;51.934;10.330;2023-02-13T05:55:33;101253.88;;;5.80;100.00
24762;BME280;12865;51.934;10.330;2023-02-13T05:58:19;101253.88;;;5.80;100.00
24762;BME280;12865;51.934;10.330;2023-02-13T06:01:05;101261.72;;;5.82;100.00
24762;BME280;12865;51.934;10.330;2023-02-13T06:03:51;101258.25;;;5.81;100.00
24762;BME280;12865;51.934;10.330;2023-02-13T06:06:37;101261.72;;;5.82;100.00
24762;BME280;12865;51.934;10.330;2023-02-13T06:09:22;101260.03;;;5.81;100.00
24762;BME280;12865;51.934;10.330;2023-02-13T06:12:08;101266.25;;;5.80;100.00
24762;BME280;12865;51.934;10.330;2023-02-13T06:14:53;101262.72;;;5.79;100.00
24762;BME280;12865;51.934;10.330;2023-02-13T06:17:39;101261.00;;;5.78;100.00
24762;BME280;12865;51.934;10.330;2023-02-13T06:20:25;101258.41;;;5.77;100.00
24762;BME280;12865;51.934;10.330;2023-02-13T06:23:11;101254.03;;;5.76;100.00
24762;BME280;12865;51.934;10.330;2023-02-13T06:26:05;101254.78;;;5.79;100.00
24762;BME280;12865;51.934;10.330;2023-02-13T06:28:50;101259.09;;;5.82;100.00
24762;BME280;12865;51.934;10.330;2023-02-13T06:31:36;101259.09;;;5.82;100.00
24762;BME280;12865;51.934;10.330;2023-02-13T06:34:22;101265.19;;;5.84;100.00
24762;BME280;12865;51.934;10.330;2023-02-13T06:37:07;101259.88;;;5.84;100.00
24762;BME280;12865;51.934;10.330;2023-02-13T06:39:53;101261.88;;;5.79;100.00
24762;BME280;12865;51.934;10.330;2023-02-13T06:42:39;101266.28;;;5.78;100.00
24762;BME280;12865;51.934;10.330;2023-02-13T06:45:26;101260.25;;;5.75;100.00
24762;BME280;12865;51.934;10.330;2023-02-13T06:48:12;101267.41;;;5.73;100.00
24762;BME280;12865;51.934;10.330;2023-02-13T06:50:58;101265.63;;;5.73;100.00
24762;BME280;12865;51.934;10.330;2023-02-13T06:53:46;101269.22;;;5.71;100.00
24762;BME280;12865;51.934;10.330;2023-02-13T06:56:31;101270.97;;;5.72;100.00
24762;BME280;12865;51.934;10.330;2023-02-13T06:59:17;101267.41;;;5.73;100.00
24762;BME280;12865;51.934;10.330;2023-02-13T07:02:03;101270.81;;;5.75;100.00
24762;BME280;12865;51.934;10.330;2023-02-13T07:04:49;101277.84;;;5.76;100.00
24762;BME280;12865;51.934;10.330;2023-02-13T07:07:35;101284.88;;;5.77;100.00
24762;BME280;12865;51.934;10.330;2023-02-13T07:10:21;101291.84;;;5.79;100.00
24762;BME280;12865;51.934;10.330;2023-02-13T07:13:08;101289.16;;;5.81;100.00
24762;BME280;12865;51.934;10.330;2023-02-13T07:15:54;101289.94;;;5.83;100.00
24762;BME280;12865;51.934;10.330;2023-02-13T07:18:42;101292.47;;;5.86;100.00
24762;BME280;12865;51.934;10.330;2023-02-13T07:21:28;101292.44;;;5.87;100.00
24762;BME280;12865;51.934;10.330;2023-02-13T07:24:13;101296.84;;;5.87;100.00
24762;BME280;12865;51.934;10.330;2023-02-13T07:26:59;101289.81;;;5.87;100.00
24762;BME280;12865;51.934;10.330;2023-02-13T07:29:44;101300.31;;;5.89;100.00
24762;BME280;12865;51.934;10.330;2023-02-13T07:32:30;101295.72;;;5.94;100.00
24762;BME280;12865;51.934;10.330;2023-02-13T07:35:16;101296.75;;;5.90;100.00
24762;BME280;12865;51.934;10.330;2023-02-13T07:38:03;101296.13;;;5.82;100.00
24762;BME280;12865;51.934;10.330;2023-02-13T07:40:49;101299.25;;;5.70;100.00
24762;BME280;12865;51.934;10.330;2023-02-13T07:43:34;101298.56;;;5.65;100.00
24762;BME280;12865;51.934;10.330;2023-02-13T07:46:20;101309.78;;;5.71;100.00
24762;BME280;12865;51.934;10.330;2023-02-13T07:49:05;101316.97;;;5.68;100.00
24762;BME280;12865;51.934;10.330;2023-02-13T07:51:51;101319.50;;;5.71;100.00
24762;BME280;12865;51.934;10.330;2023-02-13T07:54:37;101321.81;;;5.80;100.00
24762;BME280;12865;51.934;10.330;2023-02-13T07:57:32;101325.50;;;5.76;100.00
24762;BME280;12865;51.934;10.330;2023-02-13T08:00:18;101325.44;;;5.77;100.00
24762;BME280;12865;51.934;10.330;2023-02-13T08:03:04;101330.63;;;5.80;100.00
24762;BME280;12865;51.934;10.330;2023-02-13T08:05:50;101330.88;;;5.74;100.00
24762;BME280;12865;51.934;10.330;2023-02-13T08:08:35;101333.66;;;5.70;100.00
24762;BME280;12865;51.934;10.330;2023-02-13T08:11:27;101333.78;;;5.67;100.00
24762;BME280;12865;51.934;10.330;2023-02-13T08:14:34;101327.44;;;5.71;100.00
24762;BME280;12865;51.934;10.330;2023-02-13T08:17:20;101328.22;;;5.74;100.00
24762;BME280;12865;51.934;10.330;2023-02-13T08:20:07;101324.34;;;5.83;100.00
24762;BME280;12865;51.934;10.330;2023-02-13T08:22:53;101319.91;;;5.83;100.00
24762;BME280;12865;51.934;10.330;2023-02-13T08:25:38;101329.44;;;5.89;100.00
24762;BME280;12865;51.934;10.330;2023-02-13T08:28:25;101325.19;;;5.83;100.00
24762;BME280;12865;51.934;10.330;2023-02-13T08:31:11;101330.38;;;5.88;100.00
24762;BME280;12865;51.934;10.330;2023-02-13T08:33:57;101333.88;;;5.88;100.00
24762;BME280;12865;51.934;10.330;2023-02-13T08:36:43;101324.47;;;5.80;100.00
24762;BME280;12865;51.934;10.330;2023-02-13T08:39:29;101331.78;;;5.73;100.00
24762;BME280;12865;51.934;10.330;2023-02-13T08:42:14;101329.50;;;5.87;100.00
24762;BME280;12865;51.934;10.330;2023-02-13T08:45:00;101337.47;;;5.86;100.00
24762;BME280;12865;51.934;10.330;2023-02-13T08:47:45;101339.00;;;5.93;100.00
24762;BME280;12865;51.934;10.330;2023-02-13T08:50:31;101337.47;;;5.86;100.00
24762;BME280;12865;51.934;10.330;2023-02-13T08:53:17;101341.84;;;5.88;100.00
24762;BME280;12865;51.934;10.330;2023-02-13T08:56:03;101340.69;;;5.96;100.00
24762;BME280;12865;51.934;10.330;2023-02-13T08:58:49;101339.88;;;5.94;100.00
24762;BME280;12865;51.934;10.330;2023-02-13T09:01:35;101339.69;;;5.98;100.00
24762;BME280;12865;51.934;10.330;2023-02-13T09:04:20;101338.81;;;5.98;100.00
24762;BME280;12865;51.934;10.330;2023-02-13T09:07:06;101341.59;;;5.95;100.00
24762;BME280;12865;51.934;10.330;2023-02-13T09:09:52;101344.97;;;5.98;100.00
24762;BME280;12865;51.934;10.330;2023-02-13T09:12:37;101346.03;;;5.94;100.00
24762;BME280;12865;51.934;10.330;2023-02-13T09:15:23;101347.56;;;6.00;100.00
24762;BME280;12865;51.934;10.330;2023-02-13T09:18:09;101338.09;;;5.94;100.00
24762;BME280;12865;51.934;10.330;2023-02-13T09:21:03;101338.66;;;6.02;100.00
24762;BME280;12865;51.934;10.330;2023-02-13T09:23:49;101336.06;;;6.01;100.00
24762;BME280;12865;51.934;10.330;2023-02-13T09:26:36;101332.50;;;6.02;100.00
24762;BME280;12865;51.934;10.330;2023-02-13T09:29:21;101334.63;;;5.92;100.00
24762;BME280;12865;51.934;10.330;2023-02-13T09:32:07;101334.50;;;5.95;100.00
24762;BME280;12865;51.934;10.330;2023-02-13T09:34:53;101339.63;;;6.00;100.00
24762;BME280;12865;51.934;10.330;2023-02-13T09:37:38;101347.53;;;6.01;100.00
24762;BME280;12865;51.934;10.330;2023-02-13T09:40:48;101341.16;;;6.05;100.00
24762;BME280;12865;51.934;10.330;2023-02-13T09:43:34;101343.19;;;5.99;100.00
24762;BME280;12865;51.934;10.330;2023-02-13T09:46:35;101352.22;;;5.93;100.00
24762;BME280;12865;51.934;10.330;2023-02-13T09:49:24;101350.84;;;6.06;100.00
24762;BME280;12865;51.934;10.330;2023-02-13T09:52:12;101349.56;;;6.16;100.00
24762;BME280;12865;51.934;10.330;2023-02-13T09:55:22;101353.44;;;6.08;100.00
24762;BME280;12865;51.934;10.330;2023-02-13T09:58:18;101348.75;;;6.14;100.00
24762;BME280;12865;51.934;10.330;2023-02-13T10:01:17;101345.81;;;6.22;100.00
24762;BME280;12865;51.934;10.330;2023-02-13T10:07:32;101345.78;;;6.23;100.00
24762;BME280;12865;51.934;10.330;2023-02-13T10:16:39;101346.19;;;6.35;100.00
24762;BME280;12865;51.934;10.330;2023-02-13T10:22:45;101337.19;;;6.39;100.00
24762;BME280;12865;51.934;10.330;2023-02-13T10:26:02;101336.97;;;6.45;100.00
24762;BME280;12865;51.934;10.330;2023-02-13T10:29:14;101337.81;;;6.45;100.00
24762;BME280;12865;51.934;10.330;2023-02-13T10:32:26;101352.72;;;6.48;100.00
24762;BME280;12865;51.934;10.330;2023-02-13T10:35:25;101348.78;;;6.58;100.00
24762;BME280;12865;51.934;10.330;2023-02-13T10:38:15;101346.91;;;6.60;100.00
24762;BME280;12865;51.934;10.330;2023-02-13T10:47:12;101347.06;;;6.57;100.00
24762;BME280;12865;51.934;10.330;2023-02-13T10:50:10;101349.31;;;6.66;100.00
24762;BME280;12865;51.934;10.330;2023-02-13T10:56:25;101349.09;;;6.72;100.00
24762;BME280;12865;51.934;10.330;2023-02-13T10:59:37;101352.38;;;6.57;100.00
24762;BME280;12865;51.934;10.330;2023-02-13T11:02:30;101345.34;;;6.56;100.00
24762;BME280;12865;51.934;10.330;2023-02-13T11:05:27;101347.56;;;6.45;100.00
24762;BME280;12865;51.934;10.330;2023-02-13T11:08:38;101341.75;;;6.57;100.00
24762;BME280;12865;51.934;10.330;2023-02-13T11:11:38;101338.97;;;6.60;100.00
24762;BME280;12865;51.934;10.330;2023-02-13T11:14:30;101337.34;;;6.57;100.00
24762;BME280;12865;51.934;10.330;2023-02-13T11:17:16;101329.75;;;6.48;100.00
24762;BME280;12865;51.934;10.330;2023-02-13T11:20:07;101338.09;;;6.59;100.00
24762;BME280;12865;51.934;10.330;2023-02-13T11:29:05;101326.91;;;6.53;100.00
24762;BME280;12865;51.934;10.330;2023-02-13T11:35:25;101321.03;;;6.66;100.00
24762;BME280;12865;51.934;10.330;2023-02-13T11:41:09;101323.97;;;6.81;100.00
24762;BME280;12865;51.934;10.330;2023-02-13T11:43:57;101312.31;;;6.85;100.00
24762;BME280;12865;51.934;10.330;2023-02-13T11:46:50;101322.09;;;6.62;100.00
24762;BME280;12865;51.934;10.330;2023-02-13T11:49:37;101321.69;;;6.51;100.00
24762;BME280;12865;51.934;10.330;2023-02-13T11:52:27;101319.38;;;6.64;100.00
24762;BME280;12865;51.934;10.330;2023-02-13T11:55:28;101312.91;;;6.71;100.00
24762;BME280;12865;51.934;10.330;2023-02-13T12:04:14;101297.50;;;6.59;100.00
24762;BME280;12865;51.934;10.330;2023-02-13T12:13:12;101292.03;;;6.84;100.00
24762;BME280;12865;51.934;10.330;2023-02-13T12:16:01;101285.28;;;6.77;100.00
24762;BME280;12865;51.934;10.330;2023-02-13T12:18:53;101281.16;;;6.90;100.00
24762;BME280;12865;51.934;10.330;2023-02-13T12:22:00;101275.91;;;6.88;100.00
24762;BME280;12865;51.934;10.330;2023-02-13T12:28:14;101268.16;;;7.04;100.00
24762;BME280;12865;51.934;10.330;2023-02-13T12:31:19;101268.03;;;7.07;100.00
24762;BME280;12865;51.934;10.330;2023-02-13T12:37:50;101264.53;;;7.06;100.00
24762;BME280;12865;51.934;10.330;2023-02-13T12:43:57;101262.03;;;7.22;100.00
24762;BME280;12865;51.934;10.330;2023-02-13T12:46:54;101259.59;;;7.18;100.00
24762;BME280;12865;51.934;10.330;2023-02-13T12:58:44;101250.91;;;7.34;100.00
24762;BME280;12865;51.934;10.330;2023-02-13T13:25:31;101242.78;;;6.98;100.00
24762;BME280;12865;51.934;10.330;2023-02-13T13:28:39;101241.75;;;7.01;100.00
24762;BME280;12865;51.934;10.330;2023-02-13T13:31:27;101241.91;;;6.98;100.00
24762;BME280;12865;51.934;10.330;2023-02-13T13:34:17;101233.22;;;6.94;100.00
24762;BME280;12865;51.934;10.330;2023-02-13T13:37:25;101235.16;;;6.91;100.00
24762;BME280;12865;51.934;10.330;2023-02-13T13:46:21;101228.72;;;6.96;100.00
24762;BME280;12865;51.934;10.330;2023-02-13T13:49:11;101234.44;;;7.07;100.00
24762;BME280;12865;51.934;10.330;2023-02-13T13:55:04;101210.34;;;7.31;100.00
24762;BME280;12865;51.934;10.330;2023-02-13T13:57:58;101209.59;;;7.29;100.00
24762;BME280;12865;51.934;10.330;2023-02-13T14:00:44;101202.59;;;7.07;100.00
24762;BME280;12865;51.934;10.330;2023-02-13T14:03:35;101197.34;;;7.06;100.00
24762;BME280;12865;51.934;10.330;2023-02-13T14:07:12;101198.13;;;7.08;100.00
24762;BME280;12865;51.934;10.330;2023-02-13T14:09:49;101199.16;;;7.05;100.00
24762;BME280;12865;51.934;10.330;2023-02-13T14:12:36;101197.44;;;6.84;100.00
24762;BME280;12865;51.934;10.330;2023-02-13T14:18:22;101197.47;;;7.03;100.00
24762;BME280;12865;51.934;10.330;2023-02-13T14:21:10;101201.50;;;6.93;100.00
24762;BME280;12865;51.934;10.330;2023-02-13T14:23:58;101198.06;;;7.09;100.00
24762;BME280;12865;51.934;10.330;2023-02-13T14:26:53;101194.31;;;6.95;100.00
24762;BME280;12865;51.934;10.330;2023-02-13T14:29:46;101201.66;;;7.08;100.00
24762;BME280;12865;51.934;10.330;2023-02-13T14:32:34;101196.44;;;7.07;100.00
24762;BME280;12865;51.934;10.330;2023-02-13T14:35:30;101199.72;;;7.12;100.00
24762;BME280;12865;51.934;10.330;2023-02-13T14:38:22;101196.44;;;7.07;100.00
24762;BME280;12865;51.934;10.330;2023-02-13T14:44:50;101194.50;;;7.10;100.00
24762;BME280;12865;51.934;10.330;2023-02-13T14:47:40;101187.63;;;7.06;100.00
24762;BME280;12865;51.934;10.330;2023-02-13T14:50:42;101198.66;;;7.16;100.00
24762;BME280;12865;51.934;10.330;2023-02-13T14:53:51;101200.38;;;7.17;100.00
24762;BME280;12865;51.934;10.330;2023-02-13T14:56:38;101200.59;;;7.13;100.00
24762;BME280;12865;51.934;10.330;2023-02-13T14:59:28;101190.00;;;7.13;100.00
24762;BME280;12865;51.934;10.330;2023-02-13T15:02:29;101183.75;;;7.14;100.00
24762;BME280;12865;51.934;10.330;2023-02-13T15:05:17;101185.19;;;7.21;100.00
24762;BME280;12865;51.934;10.330;2023-02-13T15:08:14;101175.56;;;6.99;100.00
24762;BME280;12865;51.934;10.330;2023-02-13T15:11:01;101175.84;;;6.93;100.00
24762;BME280;12865;51.934;10.330;2023-02-13T15:13:47;101181.16;;;6.93;100.00
24762;BME280;12865;51.934;10.330;2023-02-13T15:16:32;101181.50;;;7.04;100.00
24762;BME280;12865;51.934;10.330;2023-02-13T15:19:20;101189.34;;;7.07;100.00
24762;BME280;12865;51.934;10.330;2023-02-13T15:22:06;101182.03;;;7.13;100.00
24762;BME280;12865;51.934;10.330;2023-02-13T15:25:00;101177.66;;;7.12;100.00
24762;BME280;12865;51.934;10.330;2023-02-13T15:27:51;101181.72;;;7.00;100.00
24762;BME280;12865;51.934;10.330;2023-02-13T15:30:38;101180.72;;;7.02;100.00
24762;BME280;12865;51.934;10.330;2023-02-13T15:33:27;101184.50;;;6.97;100.00
24762;BME280;12865;51.934;10.330;2023-02-13T15:36:21;101190.41;;;7.03;100.00
24762;BME280;12865;51.934;10.330;2023-02-13T15:39:16;101186.06;;;7.01;100.00
24762;BME280;12865;51.934;10.330;2023-02-13T15:42:03;101188.91;;;7.17;100.00
24762;BME280;12865;51.934;10.330;2023-02-13T15:44:51;101189.47;;;7.04;100.00
24762;BME280;12865;51.934;10.330;2023-02-13T15:47:42;101181.84;;;6.97;100.00
24762;BME280;12865;51.934;10.330;2023-02-13T15:50:31;101175.84;;;6.93;100.00
24762;BME280;12865;51.934;10.330;2023-02-13T15:53:17;101170.53;;;6.93;100.00
24762;BME280;12865;51.934;10.330;2023-02-13T15:56:04;101175.75;;;6.95;100.00
24762;BME280;12865;51.934;10.330;2023-02-13T15:58:51;101172.22;;;6.94;100.00
24762;BME280;12865;51.934;10.330;2023-02-13T16:01:38;101177.47;;;6.96;100.00
24762;BME280;12865;51.934;10.330;2023-02-13T16:04:25;101168.00;;;6.90;100.00
24762;BME280;12865;51.934;10.330;2023-02-13T16:07:13;101166.16;;;6.92;100.00
24762;BME280;12865;51.934;10.330;2023-02-13T16:10:26;101164.09;;;6.99;100.00
24762;BME280;12865;51.934;10.330;2023-02-13T16:13:15;101155.31;;;6.78;100.00
24762;BME280;12865;51.934;10.330;2023-02-13T16:16:07;101160.72;;;6.75;100.00
24762;BME280;12865;51.934;10.330;2023-02-13T16:18:53;101175.34;;;6.65;100.00
24762;BME280;12865;51.934;10.330;2023-02-13T16:21:39;101171.03;;;6.62;100.00
24762;BME280;12865;51.934;10.330;2023-02-13T16:24:25;101170.16;;;6.62;100.00
24762;BME280;12865;51.934;10.330;2023-02-13T16:27:12;101171.56;;;6.50;100.00
24762;BME280;12865;51.934;10.330;2023-02-13T16:30:03;101170.97;;;6.44;100.00
24762;BME280;12865;51.934;10.330;2023-02-13T16:32:49;101173.19;;;6.32;100.00
24762;BME280;12865;51.934;10.330;2023-02-13T16:35:37;101170.00;;;6.24;100.00
24762;BME280;12865;51.934;10.330;2023-02-13T16:38:33;101175.56;;;6.18;100.00
24762;BME280;12865;51.934;10.330;2023-02-13T16:44:30;101173.78;;;5.97;100.00
24762;BME280;12865;51.934;10.330;2023-02-13T16:47:21;101174.72;;;5.74;100.00
24762;BME280;12865;51.934;10.330;2023-02-13T16:50:13;101167.94;;;5.67;100.00
24762;BME280;12865;51.934;10.330;2023-02-13T16:53:01;101160.31;;;5.60;100.00
24762;BME280;12865;51.934;10.330;2023-02-13T16:55:56;101160.56;;;5.53;100.00
24762;BME280;12865;51.934;10.330;2023-02-13T16:58:43;101149.00;;;5.33;100.00
24762;BME280;12865;51.934;10.330;2023-02-13T17:01:29;101159.75;;;5.28;100.00